createdAt,value
2022-09-26T00:01:51.341Z,10.30
2022-09-26T00:04:32.956Z,10.07
2022-09-26T00:07:08.893Z,10.25
2022-09-26T00:09:41.869Z,10.32
2022-09-26T00:12:10.069Z,10.25
2022-09-26T00:14:38.286Z,10.18
2022-09-26T00:17:06.531Z,10.24
2022-09-26T00:19:34.828Z,10.04
2022-09-26T00:22:03.026Z,10.13
2022-09-26T00:24:32.791Z,9.93
2022-09-26T00:27:00.991Z,10.07
2022-09-26T00:29:29.304Z,10.05
2022-09-26T00:31:57.684Z,10.10
2022-09-26T00:34:25.927Z,9.93
2022-09-26T00:36:54.156Z,9.93
2022-09-26T00:39:22.428Z,9.93
2022-09-26T00:41:52.086Z,10.05
2022-09-26T00:44:46.070Z,10.10
2022-09-26T00:47:40.604Z,9.97
2022-09-26T00:50:18.403Z,9.87
2022-09-26T00:52:53.834Z,9.89
2022-09-26T00:55:30.810Z,9.83
2022-09-26T00:58:05.784Z,9.75
2022-09-26T01:00:35.203Z,9.72
2022-09-26T01:03:04.629Z,9.84
2022-09-26T01:05:34.093Z,9.88
2022-09-26T01:08:03.431Z,9.80
2022-09-26T01:10:34.360Z,9.85
2022-09-26T01:13:04.500Z,9.89
2022-09-26T01:15:36.113Z,9.80
2022-09-26T01:18:07.679Z,9.65
2022-09-26T01:20:49.696Z,9.38
2022-09-26T01:24:05.686Z,9.49
2022-09-26T01:27:05.620Z,9.43
2022-09-26T01:30:13.114Z,9.38
2022-09-26T01:33:40.279Z,9.38
2022-09-26T01:36:45.618Z,9.39
2022-09-26T01:39:37.513Z,9.41
2022-09-26T01:42:18.012Z,9.45
2022-09-26T01:44:54.390Z,9.39
2022-09-26T01:47:30.926Z,9.33
2022-09-26T01:50:08.467Z,9.42
2022-09-26T01:52:44.472Z,9.39
2022-09-26T01:55:16.423Z,9.44
2022-09-26T01:57:50.748Z,9.50
2022-09-26T02:00:20.279Z,9.41
2022-09-26T02:02:52.229Z,9.29
2022-09-26T02:05:28.772Z,9.40
2022-09-26T02:08:06.240Z,9.43
2022-09-26T02:10:39.146Z,9.37
2022-09-26T02:13:17.808Z,9.31
2022-09-26T02:15:49.658Z,9.34
2022-09-26T02:18:30.738Z,9.34
2022-09-26T02:21:04.227Z,9.47
2022-09-26T02:23:32.601Z,9.38
2022-09-26T02:26:01.254Z,9.41
2022-09-26T02:28:29.507Z,9.27
2022-09-26T02:30:59.457Z,9.48
2022-09-26T02:33:29.477Z,9.39
2022-09-26T02:35:58.757Z,9.43
2022-09-26T02:38:32.177Z,9.29
2022-09-26T02:41:19.093Z,9.18
2022-09-26T02:44:15.691Z,9.06
2022-09-26T02:47:22.997Z,9.15
2022-09-26T02:50:19.344Z,9.10
2022-09-26T02:52:58.131Z,9.11
2022-09-26T02:55:47.191Z,9.06
2022-09-26T02:58:23.146Z,9.06
2022-09-26T03:01:02.137Z,9.10
2022-09-26T03:03:36.957Z,9.09
2022-09-26T03:06:13.677Z,9.18
2022-09-26T03:08:48.125Z,9.17
2022-09-26T03:11:21.605Z,9.18
2022-09-26T03:13:53.904Z,9.28
2022-09-26T03:16:24.725Z,9.13
2022-09-26T03:18:58.442Z,8.83
2022-09-26T03:21:28.645Z,9.28
2022-09-26T03:23:58.090Z,9.20
2022-09-26T03:26:29.457Z,9.29
2022-09-26T03:29:01.376Z,9.23
2022-09-26T03:31:32.392Z,9.36
2022-09-26T03:34:02.781Z,9.29
2022-09-26T03:36:33.167Z,9.29
2022-09-26T03:39:03.563Z,9.37
2022-09-26T03:41:45.317Z,9.33
2022-09-26T03:44:33.779Z,9.32
2022-09-26T03:47:04.959Z,9.26
2022-09-26T03:49:38.840Z,9.30
2022-09-26T03:52:11.675Z,8.95
2022-09-26T03:54:40.234Z,9.28
2022-09-26T03:57:09.866Z,9.23
2022-09-26T03:59:42.867Z,9.23
2022-09-26T04:02:12.504Z,9.30
2022-09-26T04:04:49.118Z,9.26
2022-09-26T04:07:23.980Z,9.17
2022-09-26T04:09:57.205Z,9.16
2022-09-26T04:12:25.723Z,9.17
2022-09-26T04:14:54.038Z,9.25
2022-09-26T04:17:22.471Z,9.23
2022-09-26T04:19:51.044Z,9.33
2022-09-26T04:22:20.600Z,9.10
2022-09-26T04:24:49.843Z,9.27
2022-09-26T04:27:18.281Z,9.08
2022-09-26T04:29:47.582Z,9.23
2022-09-26T04:32:37.015Z,8.90
2022-09-26T04:35:17.207Z,8.90
2022-09-26T04:37:47.369Z,9.13
2022-09-26T04:40:16.236Z,9.20
2022-09-26T04:42:56.410Z,9.17
2022-09-26T04:45:24.715Z,9.21
2022-09-26T04:47:52.918Z,9.10
2022-09-26T04:50:27.274Z,9.01
2022-09-26T04:53:11.829Z,9.06
2022-09-26T04:55:47.988Z,9.16
2022-09-26T04:58:18.041Z,9.00
2022-09-26T05:00:49.626Z,9.08
2022-09-26T05:03:28.406Z,9.04
2022-09-26T05:05:57.090Z,8.90
2022-09-26T05:08:27.493Z,8.98
2022-09-26T05:10:57.932Z,8.89
2022-09-26T05:13:28.121Z,8.77
2022-09-26T05:15:59.365Z,8.92
2022-09-26T05:18:29.420Z,7.95
2022-09-26T05:21:01.327Z,8.72
2022-09-26T05:23:48.604Z,8.91
2022-09-26T05:26:22.635Z,8.83
2022-09-26T05:28:54.477Z,8.84
2022-09-26T05:31:29.127Z,9.08
2022-09-26T05:33:57.550Z,9.03
2022-09-26T05:36:26.529Z,8.94
2022-09-26T05:38:56.924Z,8.81
2022-09-26T05:41:27.853Z,8.85
2022-09-26T05:43:57.017Z,8.89
2022-09-26T05:46:28.526Z,8.94
2022-09-26T05:49:00.750Z,8.75
2022-09-26T05:51:29.476Z,8.77
2022-09-26T05:53:59.122Z,8.88
2022-09-26T05:56:29.050Z,8.80
2022-09-26T05:59:34.072Z,8.59
2022-09-26T06:02:22.584Z,8.61
2022-09-26T06:05:05.278Z,8.41
2022-09-26T06:07:40.570Z,8.55
2022-09-26T06:10:17.509Z,8.60
2022-09-26T06:12:54.686Z,8.69
2022-09-26T06:15:24.886Z,8.78
2022-09-26T06:18:00.464Z,8.88
2022-09-26T06:20:28.979Z,8.98
2022-09-26T06:22:57.493Z,8.93
2022-09-26T06:25:27.215Z,9.04
2022-09-26T06:28:00.561Z,9.18
2022-09-26T06:30:30.442Z,9.03
2022-09-26T06:33:12.591Z,9.15
2022-09-26T06:36:01.659Z,9.23
2022-09-26T06:38:35.661Z,9.03
2022-09-26T06:41:07.774Z,9.01
2022-09-26T06:43:36.301Z,9.07
2022-09-26T06:46:24.798Z,9.27
2022-09-26T06:49:18.840Z,9.28
2022-09-26T06:52:03.465Z,9.32
2022-09-26T06:54:31.733Z,9.34
2022-09-26T06:57:01.208Z,9.34
2022-09-26T06:59:29.573Z,9.48
2022-09-26T07:02:19.299Z,9.65
2022-09-26T07:05:02.767Z,9.63
2022-09-26T07:07:43.327Z,9.60
2022-09-26T07:10:20.298Z,9.67
2022-09-26T07:13:07.675Z,9.19
2022-09-26T07:15:37.136Z,9.83
2022-09-26T07:18:31.205Z,9.98
2022-09-26T07:21:11.817Z,9.90
2022-09-26T07:23:49.259Z,9.89
2022-09-26T07:26:20.481Z,9.92
2022-09-26T07:28:54.571Z,9.96
2022-09-26T07:31:24.520Z,10.13
2022-09-26T07:34:05.091Z,10.11
2022-09-26T07:36:33.654Z,10.08
2022-09-26T07:39:02.224Z,10.26
2022-09-26T07:41:31.483Z,10.20
2022-09-26T07:47:09.423Z,10.50
2022-09-26T07:49:55.342Z,10.67
2022-09-26T07:52:35.931Z,10.56
2022-09-26T07:55:30.433Z,10.73
2022-09-26T07:58:11.566Z,10.70
2022-09-26T08:00:54.427Z,10.54
2022-09-26T08:03:49.539Z,10.81
2022-09-26T08:06:39.198Z,11.09
2022-09-26T08:09:09.288Z,10.99
2022-09-26T08:11:56.227Z,11.05
2022-09-26T08:14:53.953Z,11.39
2022-09-26T08:17:41.253Z,11.42
2022-09-26T08:20:10.920Z,11.52
2022-09-26T08:22:39.306Z,11.30
2022-09-26T08:25:10.153Z,11.83
2022-09-26T08:27:43.552Z,11.17
2022-09-26T08:30:13.589Z,11.42
2022-09-26T08:32:44.452Z,11.47
2022-09-26T08:35:14.839Z,11.36
2022-09-26T08:38:03.661Z,11.45
2022-09-26T08:40:54.598Z,11.36
2022-09-26T08:43:57.705Z,11.14
2022-09-26T08:46:57.094Z,10.94
2022-09-26T08:50:13.978Z,11.35
2022-09-26T08:52:46.293Z,11.42
2022-09-26T08:55:19.185Z,11.47
2022-09-26T08:57:51.559Z,11.44
2022-09-26T09:00:24.943Z,11.54
2022-09-26T09:03:21.348Z,11.46
2022-09-26T09:05:56.576Z,11.47
2022-09-26T09:08:30.217Z,11.55
2022-09-26T09:11:22.045Z,11.58
2022-09-26T09:14:06.138Z,11.60
2022-09-26T09:17:13.691Z,11.77
2022-09-26T09:20:05.262Z,11.70
2022-09-26T09:23:14.973Z,11.24
2022-09-26T09:27:52.518Z,12.11
2022-09-26T09:29:10.476Z,12.21
2022-09-26T09:31:43.032Z,12.10
2022-09-26T09:34:50.122Z,12.03
2022-09-26T09:37:47.746Z,12.21
2022-09-26T09:40:38.282Z,12.16
2022-09-26T09:43:14.610Z,12.17
2022-09-26T09:45:48.399Z,12.19
2022-09-26T09:48:17.104Z,12.11
2022-09-26T09:50:59.950Z,12.19
2022-09-26T09:53:48.705Z,12.12
2022-09-26T09:56:31.910Z,12.36
2022-09-26T09:59:15.930Z,12.09
2022-09-26T10:02:34.907Z,12.49
2022-09-26T10:05:24.339Z,12.59
2022-09-26T10:07:58.032Z,12.76
2022-09-26T10:10:57.112Z,12.76
2022-09-26T10:13:46.458Z,12.62
2022-09-26T10:16:29.052Z,12.77
2022-09-26T10:19:08.060Z,12.29
2022-09-26T10:21:39.876Z,12.73
2022-09-26T10:24:23.975Z,12.90
2022-09-26T10:26:57.349Z,13.10
2022-09-26T10:29:38.377Z,13.31
2022-09-26T10:32:07.860Z,13.29
2022-09-26T10:34:39.923Z,13.39
2022-09-26T10:37:23.411Z,13.45
2022-09-26T10:40:17.227Z,13.46
2022-09-26T10:42:47.297Z,13.36
2022-09-26T10:45:20.374Z,13.46
2022-09-26T10:48:43.361Z,13.42
2022-09-26T10:51:42.474Z,13.08
2022-09-26T10:54:14.751Z,13.04
2022-09-26T10:56:48.738Z,13.11
2022-09-26T10:59:20.468Z,13.39
2022-09-26T11:01:56.475Z,13.25
2022-09-26T11:04:46.237Z,13.15
2022-09-26T11:07:39.683Z,13.37
2022-09-26T11:10:32.417Z,13.32
2022-09-26T11:13:18.510Z,13.19
2022-09-26T11:16:01.415Z,13.34
2022-09-26T11:18:44.517Z,13.14
2022-09-26T11:21:28.796Z,13.20
2022-09-26T11:24:11.772Z,13.34
2022-09-26T11:26:51.206Z,13.40
2022-09-26T11:29:28.367Z,13.30
2022-09-26T11:32:05.656Z,13.47
2022-09-26T11:34:54.635Z,13.52
2022-09-26T11:37:50.720Z,13.62
2022-09-26T11:40:36.349Z,13.63
2022-09-26T11:43:24.569Z,13.57
2022-09-26T11:46:21.190Z,13.47
2022-09-26T11:50:00.223Z,13.41
2022-09-26T11:52:50.325Z,13.35
2022-09-26T11:55:31.134Z,13.28
2022-09-26T11:58:11.646Z,13.24
2022-09-26T12:00:54.615Z,13.33
2022-09-26T12:03:56.024Z,13.14
2022-09-26T12:06:33.679Z,13.11
2022-09-26T12:09:28.068Z,12.83
2022-09-26T12:12:09.679Z,12.63
2022-09-26T12:14:54.189Z,12.11
2022-09-26T12:17:37.834Z,11.77
2022-09-26T12:20:24.888Z,11.69
2022-09-26T12:23:01.708Z,11.89
2022-09-26T12:25:44.956Z,12.33
2022-09-26T12:28:25.516Z,12.51
2022-09-26T12:31:07.778Z,12.59
2022-09-26T12:33:57.246Z,12.70
2022-09-26T12:36:40.453Z,12.44
2022-09-26T12:39:36.569Z,12.26
2022-09-26T12:42:43.457Z,11.80
2022-09-26T12:45:35.113Z,11.46
2022-09-26T12:48:22.721Z,11.18
2022-09-26T12:51:07.565Z,10.95
2022-09-26T12:54:19.385Z,10.68
2022-09-26T12:56:54.202Z,10.51
2022-09-26T12:59:52.880Z,10.63
2022-09-26T13:02:46.741Z,11.04
2022-09-26T13:06:07.811Z,11.50
2022-09-26T13:08:46.894Z,11.82
2022-09-26T13:11:29.212Z,11.85
2022-09-26T13:14:39.514Z,11.87
2022-09-26T13:17:14.209Z,12.21
2022-09-26T13:19:48.202Z,12.53
2022-09-26T13:22:34.457Z,13.33
2022-09-26T13:25:19.620Z,13.84
2022-09-26T13:27:55.913Z,14.24
2022-09-26T13:30:35.270Z,14.61
2022-09-26T13:33:15.077Z,14.68
2022-09-26T13:35:47.927Z,14.68
2022-09-26T13:38:38.000Z,14.00
2022-09-26T13:41:27.239Z,13.70
2022-09-26T13:44:09.524Z,13.34
2022-09-26T13:47:03.302Z,12.82
2022-09-26T13:49:49.926Z,12.71
2022-09-26T13:52:30.452Z,12.95
2022-09-26T13:55:02.260Z,13.11
2022-09-26T13:57:39.008Z,12.88
2022-09-26T14:00:54.607Z,13.48
2022-09-26T14:03:42.433Z,13.57
2022-09-26T14:06:31.919Z,13.90
2022-09-26T14:09:28.589Z,13.96
2022-09-26T14:12:21.946Z,13.65
2022-09-26T14:15:20.921Z,13.44
2022-09-26T14:18:18.223Z,13.48
2022-09-26T14:21:15.893Z,13.75
2022-09-26T14:23:46.212Z,13.69
2022-09-26T14:26:21.021Z,13.87
2022-09-26T14:28:54.742Z,13.19
2022-09-26T14:32:00.955Z,13.47
2022-09-26T14:34:35.395Z,13.45
2022-09-26T14:37:25.726Z,13.31
2022-09-26T14:40:03.488Z,13.34
2022-09-26T14:42:38.344Z,13.22
2022-09-26T14:45:18.408Z,13.32
2022-09-26T14:47:56.067Z,13.26
2022-09-26T14:50:35.340Z,13.19
2022-09-26T14:53:18.848Z,13.04
2022-09-26T14:56:00.568Z,13.13
2022-09-26T14:58:46.267Z,13.07
2022-09-26T15:01:20.780Z,12.91
2022-09-26T15:03:57.650Z,13.02
2022-09-26T15:06:27.785Z,13.14
2022-09-26T15:08:59.305Z,13.23
2022-09-26T15:11:41.238Z,13.14
2022-09-26T15:14:23.452Z,13.37
2022-09-26T15:16:55.005Z,13.39
2022-09-26T15:19:28.113Z,13.35
2022-09-26T15:22:01.150Z,13.16
2022-09-26T15:24:33.449Z,13.13
2022-09-26T15:27:09.280Z,13.19
2022-09-26T15:29:46.188Z,13.05
2022-09-26T15:32:19.710Z,13.11
2022-09-26T15:34:48.771Z,13.00
2022-09-26T15:37:21.238Z,12.98
2022-09-26T15:39:51.492Z,12.87
2022-09-26T15:42:44.457Z,12.90
2022-09-26T15:45:30.419Z,12.81
2022-09-26T15:48:01.913Z,12.83
2022-09-26T15:50:39.063Z,12.77
2022-09-26T15:53:15.144Z,12.80
2022-09-26T15:55:51.943Z,12.74
2022-09-26T15:58:24.805Z,12.18
2022-09-26T16:00:54.081Z,12.65
2022-09-26T16:03:45.373Z,12.48
2022-09-26T16:06:29.391Z,12.48
2022-09-26T16:09:09.444Z,12.43
2022-09-26T16:11:47.746Z,12.46
2022-09-26T16:14:27.817Z,12.46
2022-09-26T16:17:01.164Z,12.46
2022-09-26T16:19:36.307Z,12.40
2022-09-26T16:22:36.144Z,12.46
2022-09-26T16:25:24.329Z,12.46
2022-09-26T16:28:19.041Z,12.24
2022-09-26T16:31:03.696Z,12.22
2022-09-26T16:33:34.640Z,11.83
2022-09-26T16:36:18.130Z,12.17
2022-09-26T16:38:59.968Z,12.05
2022-09-26T16:42:03.683Z,12.20
2022-09-26T16:44:33.454Z,12.25
2022-09-26T16:47:05.882Z,11.89
2022-09-26T16:49:47.132Z,12.17
2022-09-26T16:52:29.991Z,12.25
2022-09-26T16:55:00.509Z,12.17
2022-09-26T16:57:31.855Z,12.35
2022-09-26T17:00:23.077Z,12.23
2022-09-26T17:02:51.474Z,12.30
2022-09-26T17:05:22.624Z,11.29
2022-09-26T17:07:51.424Z,12.12
2022-09-26T17:10:24.361Z,12.20
2022-09-26T17:12:53.329Z,12.11
2022-09-26T17:15:29.010Z,12.16
2022-09-26T17:18:01.690Z,12.11
2022-09-26T17:20:34.344Z,12.02
2022-09-26T17:23:21.943Z,12.88
2022-09-26T17:25:56.802Z,11.45
2022-09-26T17:28:32.207Z,11.76
2022-09-26T17:31:06.437Z,11.63
2022-09-26T17:33:39.204Z,11.68
2022-09-26T17:36:10.970Z,10.80
2022-09-26T17:38:41.166Z,11.83
2022-09-26T17:41:12.562Z,11.77
2022-09-26T17:43:41.033Z,11.54
2022-09-26T17:46:15.863Z,11.75
2022-09-26T17:48:45.727Z,11.53
2022-09-26T17:51:15.070Z,11.55
2022-09-26T17:53:50.624Z,11.59
2022-09-26T17:56:20.616Z,11.30
2022-09-26T17:58:52.080Z,11.63
2022-09-26T18:04:22.527Z,11.59
2022-09-26T18:06:50.999Z,11.74
2022-09-26T18:09:22.244Z,11.66
2022-09-26T18:12:02.796Z,10.95
2022-09-26T18:14:33.661Z,11.65
2022-09-26T18:17:04.368Z,11.54
2022-09-26T18:19:35.202Z,11.64
2022-09-26T18:22:03.769Z,11.11
2022-09-26T18:24:32.229Z,11.66
2022-09-26T18:27:04.059Z,11.47
2022-09-26T18:29:37.213Z,11.48
2022-09-26T18:32:15.006Z,11.25
2022-09-26T18:34:43.287Z,11.27
2022-09-26T18:37:11.530Z,11.39
2022-09-26T18:39:39.841Z,11.39
2022-09-26T18:42:10.150Z,11.46
2022-09-26T18:44:38.803Z,10.51
2022-09-26T18:47:18.569Z,11.36
2022-09-26T18:49:48.641Z,11.40
2022-09-26T18:52:19.109Z,11.30
2022-09-26T18:55:07.887Z,11.52
2022-09-26T18:57:53.887Z,11.33
2022-09-26T19:00:22.183Z,9.99
2022-09-26T19:02:52.540Z,11.18
2022-09-26T19:05:21.640Z,10.84
2022-09-26T19:07:49.981Z,11.16
2022-09-26T19:10:22.638Z,11.25
2022-09-26T19:12:50.982Z,11.22
2022-09-26T19:15:19.834Z,11.34
2022-09-26T19:17:49.973Z,11.11
2022-09-26T19:20:20.100Z,11.22
2022-09-26T19:22:48.585Z,11.23
2022-09-26T19:25:16.927Z,11.30
2022-09-26T19:27:49.859Z,11.13
2022-09-26T19:30:21.168Z,11.21
2022-09-26T19:32:52.586Z,11.09
2022-09-26T19:35:28.324Z,11.04
2022-09-26T19:37:56.583Z,11.25
2022-09-26T19:40:26.443Z,11.22
2022-09-26T19:42:57.089Z,10.95
2022-09-26T19:45:26.282Z,10.68
2022-09-26T19:47:56.498Z,10.81
2022-09-26T19:50:27.174Z,10.75
2022-09-26T19:52:58.424Z,10.81
2022-09-26T19:55:29.789Z,10.80
2022-09-26T19:58:03.202Z,10.26
2022-09-26T20:00:37.001Z,10.86
2022-09-26T20:03:29.470Z,11.11
2022-09-26T20:05:59.694Z,10.78
2022-09-26T20:08:35.862Z,10.50
2022-09-26T20:11:04.234Z,10.87
2022-09-26T20:13:52.963Z,10.92
2022-09-26T20:16:21.588Z,10.70
2022-09-26T20:18:51.145Z,10.80
2022-09-26T20:21:26.393Z,10.77
2022-09-26T20:23:54.976Z,10.78
2022-09-26T20:26:23.743Z,6.26
2022-09-26T20:28:52.141Z,10.69
2022-09-26T20:31:26.168Z,10.65
2022-09-26T20:33:59.228Z,10.62
2022-09-26T20:36:33.070Z,9.81
2022-09-26T20:39:05.582Z,10.69
2022-09-26T20:41:36.725Z,10.60
2022-09-26T20:44:08.828Z,10.75
2022-09-26T20:46:40.484Z,10.51
2022-09-26T20:49:16.273Z,10.80
2022-09-26T20:51:46.321Z,10.86
2022-09-26T20:54:26.857Z,10.69
2022-09-26T20:56:56.329Z,10.54
2022-09-26T20:59:25.299Z,10.51
2022-09-26T21:01:55.728Z,10.85
2022-09-26T21:04:32.082Z,10.75
2022-09-26T21:07:01.618Z,10.77
2022-09-26T21:09:29.824Z,10.81
2022-09-26T21:11:57.997Z,10.65
2022-09-26T21:14:26.237Z,10.78
2022-09-26T21:16:54.642Z,10.76
2022-09-26T21:19:24.990Z,10.63
2022-09-26T21:22:04.663Z,10.70
2022-09-26T21:24:40.627Z,10.33
2022-09-26T21:27:12.113Z,10.78
2022-09-26T21:29:40.356Z,10.68
2022-09-26T21:32:13.178Z,10.70
2022-09-26T21:34:42.661Z,10.77
2022-09-26T21:37:12.590Z,10.78
2022-09-26T21:39:40.993Z,10.86
2022-09-26T21:42:09.257Z,10.62
2022-09-26T21:44:42.632Z,10.72
2022-09-26T21:47:11.400Z,10.64
2022-09-26T21:49:39.577Z,10.74
2022-09-26T21:52:13.792Z,10.64
2022-09-26T21:54:44.779Z,10.61
2022-09-26T21:57:19.560Z,10.58
2022-09-26T21:59:50.799Z,10.45
2022-09-26T22:02:19.012Z,10.38
2022-09-26T22:04:47.890Z,10.39
2022-09-26T22:07:17.419Z,10.06
2022-09-26T22:09:48.256Z,10.22
2022-09-26T22:12:16.713Z,10.05
2022-09-26T22:14:44.906Z,10.07
2022-09-26T22:17:13.170Z,10.18
2022-09-26T22:19:41.488Z,10.08
2022-09-26T22:22:10.677Z,10.15
2022-09-26T22:24:40.253Z,10.07
2022-09-26T22:27:08.406Z,10.15
2022-09-26T22:29:36.580Z,10.15
2022-09-26T22:32:06.214Z,10.05
2022-09-26T22:34:34.401Z,10.00
2022-09-26T22:37:02.522Z,10.06
2022-09-26T22:39:30.656Z,9.79
2022-09-26T22:42:00.595Z,9.73
2022-09-26T22:44:28.776Z,9.62
2022-09-26T22:46:56.896Z,9.61
2022-09-26T22:49:25.268Z,9.59
2022-09-26T22:51:53.533Z,9.52
2022-09-26T22:54:21.748Z,9.39
2022-09-26T22:56:50.251Z,9.35
2022-09-26T22:59:19.784Z,9.34
2022-09-26T23:01:49.884Z,9.34
2022-09-26T23:04:18.369Z,8.91
2022-09-26T23:06:46.514Z,9.16
2022-09-26T23:09:14.956Z,8.55
2022-09-26T23:11:43.199Z,9.11
2022-09-26T23:14:11.368Z,9.17
2022-09-26T23:16:40.932Z,9.02
2022-09-26T23:19:09.225Z,8.27
2022-09-26T23:21:37.402Z,8.94
2022-09-26T23:24:30.328Z,8.89
2022-09-26T23:26:59.076Z,8.83
2022-09-26T23:29:27.579Z,8.77
2022-09-26T23:31:57.842Z,8.78
2022-09-26T23:34:26.278Z,8.82
2022-09-26T23:36:54.451Z,8.62
2022-09-26T23:39:22.963Z,8.55
2022-09-26T23:41:51.154Z,8.76
2022-09-26T23:44:19.343Z,8.68
2022-09-26T23:46:47.487Z,8.66
2022-09-26T23:49:17.014Z,8.69
2022-09-26T23:51:47.510Z,8.70
2022-09-26T23:54:15.710Z,8.70
2022-09-26T23:56:43.865Z,8.69
2022-09-26T23:59:12.262Z,8.59
